TOM098 EGKK-TBPB
Flight info
| Callsign | TOM098 |
|---|---|
| Flight time | N/A |
| Altitude | 38000 |
| Route | IMVUR N63 SAM N19 ADKIK DCT JOZMA DCT GAPLI/M086F380 DCT OMOKO DCT 47N020W 45N025W 42N030W 35N040W/M086F400 30N045W 25N050W DCT GLAAS/N0496F400 DCT BGI |
| Aircraft | B789/H-SDE1E2E3FGHIJ2J3J4J5M1RWXY/LB1D1 |
Departure
| Time | 2026-04-15 05:55 |
|---|---|
| Airport | London Gatwick Airport (EGKK) |
Arrival
| Time | N/A |
|---|---|
| Airport | Grantley Adams International Airport (TBPB) |
| Time | Latitude | Longitude | Altitude | Speed | Heading |
|---|---|---|---|---|---|
| 2026-04-15 05:45 | 51.16055 | -0.18019 | 216 ft | 0 kts | 77° |
| 2026-04-15 05:46 | 51.16055 | -0.18020 | 216 ft | 2 kts | 77° |
| 2026-04-15 05:46 | 51.16051 | -0.18046 | 219 ft | 2 kts | 77° |
| 2026-04-15 05:46 | 51.16048 | -0.18071 | 218 ft | 2 kts | 78° |
| 2026-04-15 05:47 | 51.16044 | -0.18097 | 215 ft | 2 kts | 78° |
| 2026-04-15 05:47 | 51.16041 | -0.18123 | 215 ft | 2 kts | 78° |
| 2026-04-15 05:47 | 51.16042 | -0.18148 | 214 ft | 2 kts | 155° |
| 2026-04-15 05:47 | 51.16058 | -0.18156 | 218 ft | 2 kts | 171° |
| 2026-04-15 05:48 | 51.16074 | -0.18159 | 219 ft | 2 kts | 170° |
| 2026-04-15 05:48 | 51.16078 | -0.18160 | 220 ft | 0 kts | 166° |
| 2026-04-15 05:49 | 51.16055 | -0.18151 | 219 ft | 9 kts | 166° |
| 2026-04-15 05:49 | 51.15994 | -0.18128 | 216 ft | 17 kts | 166° |
| 2026-04-15 05:49 | 51.15882 | -0.18091 | 217 ft | 17 kts | 168° |
| 2026-04-15 05:50 | 51.15769 | -0.18053 | 215 ft | 16 kts | 168° |
| 2026-04-15 05:50 | 51.15702 | -0.17954 | 214 ft | 13 kts | 85° |
| 2026-04-15 05:50 | 51.15735 | -0.17699 | 217 ft | 11 kts | 78° |
| 2026-04-15 05:51 | 51.15752 | -0.17573 | 216 ft | 12 kts | 78° |
| 2026-04-15 05:51 | 51.15746 | -0.17491 | 220 ft | 2 kts | 141° |
| 2026-04-15 05:51 | 51.15725 | -0.17488 | 218 ft | 6 kts | 174° |
| 2026-04-15 05:51 | 51.15653 | -0.17473 | 217 ft | 15 kts | 169° |
| 2026-04-15 05:52 | 51.15546 | -0.17438 | 213 ft | 16 kts | 168° |
| 2026-04-15 05:52 | 51.15435 | -0.17399 | 212 ft | 16 kts | 167° |
| 2026-04-15 05:52 | 51.15329 | -0.17363 | 211 ft | 16 kts | 168° |
| 2026-04-15 05:52 | 51.15253 | -0.17283 | 218 ft | 11 kts | 99° |
| 2026-04-15 05:53 | 51.15257 | -0.17161 | 213 ft | 11 kts | 81° |
| 2026-04-15 05:53 | 51.15273 | -0.17042 | 215 ft | 11 kts | 77° |
| 2026-04-15 05:53 | 51.15290 | -0.16922 | 217 ft | 11 kts | 76° |
| 2026-04-15 05:53 | 51.15272 | -0.16842 | 215 ft | 5 kts | 146° |
| 2026-04-15 05:54 | 51.15204 | -0.16797 | 215 ft | 16 kts | 165° |
| 2026-04-15 05:54 | 51.15103 | -0.16845 | 215 ft | 16 kts | 250° |
| 2026-04-15 05:54 | 51.15096 | -0.16986 | 211 ft | 11 kts | 257° |
| 2026-04-15 05:54 | 51.15060 | -0.17253 | 209 ft | 54 kts | 257° |
| 2026-04-15 05:55 | 51.14923 | -0.18244 | 212 ft | 127 kts | 257° |
| 2026-04-15 05:55 | 51.14692 | -0.19926 | 254 ft | 181 kts | 258° |
| 2026-04-15 05:55 | 51.14451 | -0.21996 | 904 ft | 193 kts | 261° |
| 2026-04-15 05:55 | 51.14187 | -0.23941 | 1948 ft | 175 kts | 256° |
| 2026-04-15 05:56 | 51.13868 | -0.25973 | 2196 ft | 203 kts | 257° |
| 2026-04-15 05:56 | 51.13535 | -0.28329 | 2408 ft | 231 kts | 258° |
| 2026-04-15 05:56 | 51.13183 | -0.30893 | 2892 ft | 241 kts | 258° |
| 2026-04-15 05:56 | 51.12817 | -0.33531 | 3518 ft | 250 kts | 257° |
| 2026-04-15 05:57 | 51.12419 | -0.36371 | 3981 ft | 268 kts | 257° |
| 2026-04-15 05:57 | 51.12025 | -0.39182 | 5017 ft | 262 kts | 257° |
| 2026-04-15 05:57 | 51.11621 | -0.42080 | 5848 ft | 267 kts | 257° |
| 2026-04-15 05:57 | 51.11348 | -0.45020 | 6675 ft | 270 kts | 262° |
| 2026-04-15 05:58 | 51.10888 | -0.47926 | 7473 ft | 274 kts | 252° |
| 2026-04-15 05:58 | 51.10283 | -0.50828 | 8269 ft | 277 kts | 252° |
| 2026-04-15 05:58 | 51.09744 | -0.53793 | 9044 ft | 280 kts | 255° |
| 2026-04-15 05:58 | 51.09253 | -0.56784 | 9784 ft | 283 kts | 255° |
| 2026-04-15 05:59 | 51.08732 | -0.59873 | 10313 ft | 297 kts | 255° |
| 2026-04-15 05:59 | 51.08153 | -0.63183 | 10397 ft | 324 kts | 254° |
| 2026-04-15 05:59 | 51.07529 | -0.66738 | 10453 ft | 351 kts | 255° |
| 2026-04-15 05:59 | 51.06854 | -0.70623 | 10514 ft | 375 kts | 255° |
| 2026-04-15 06:00 | 51.06139 | -0.74740 | 10644 ft | 394 kts | 255° |
| 2026-04-15 06:00 | 51.05402 | -0.78951 | 11384 ft | 394 kts | 255° |
| 2026-04-15 06:00 | 51.04668 | -0.83133 | 11949 ft | 399 kts | 254° |
| 2026-04-15 06:00 | 51.03919 | -0.87401 | 12548 ft | 402 kts | 254° |
| 2026-04-15 06:01 | 51.03160 | -0.91715 | 13125 ft | 405 kts | 254° |
| 2026-04-15 06:01 | 51.02393 | -0.96059 | 13678 ft | 409 kts | 254° |
| 2026-04-15 06:01 | 51.01629 | -1.00376 | 14200 ft | 413 kts | 254° |
| 2026-04-15 06:01 | 51.00846 | -1.04788 | 14745 ft | 416 kts | 254° |
| 2026-04-15 06:02 | 51.00055 | -1.09237 | 15266 ft | 419 kts | 254° |
| 2026-04-15 06:02 | 50.99255 | -1.13727 | 15771 ft | 422 kts | 254° |
| 2026-04-15 06:02 | 50.98460 | -1.18179 | 16231 ft | 425 kts | 254° |
| 2026-04-15 06:02 | 50.97648 | -1.22708 | 16712 ft | 428 kts | 254° |
| 2026-04-15 06:03 | 50.96829 | -1.27271 | 17175 ft | 430 kts | 254° |
| 2026-04-15 06:03 | 50.96010 | -1.31818 | 17602 ft | 433 kts | 254° |
| 2026-04-15 06:03 | 50.95266 | -1.36476 | 18002 ft | 436 kts | 259° |
| 2026-04-15 06:03 | 50.94688 | -1.41224 | 18406 ft | 438 kts | 258° |
| 2026-04-15 06:04 | 50.94081 | -1.45931 | 18809 ft | 441 kts | 258° |
| 2026-04-15 06:04 | 50.93461 | -1.50723 | 19209 ft | 443 kts | 258° |
| 2026-04-15 06:04 | 50.92848 | -1.55540 | 19578 ft | 446 kts | 258° |
| 2026-04-15 06:04 | 50.92237 | -1.60343 | 19948 ft | 448 kts | 258° |
| 2026-04-15 06:05 | 50.91609 | -1.65210 | 20300 ft | 451 kts | 258° |
| 2026-04-15 06:05 | 50.90974 | -1.70105 | 20640 ft | 453 kts | 258° |
| 2026-04-15 06:05 | 50.90336 | -1.75021 | 20973 ft | 456 kts | 258° |
| 2026-04-15 06:05 | 50.89699 | -1.79922 | 21306 ft | 457 kts | 258° |
| 2026-04-15 06:06 | 50.89051 | -1.84891 | 21620 ft | 460 kts | 258° |
| 2026-04-15 06:06 | 50.88399 | -1.89855 | 21916 ft | 462 kts | 258° |
| 2026-04-15 06:06 | 50.87750 | -1.94790 | 22198 ft | 464 kts | 258° |
| 2026-04-15 06:06 | 50.87085 | -1.99826 | 22486 ft | 466 kts | 258° |
| 2026-04-15 06:07 | 50.86419 | -2.04858 | 22770 ft | 468 kts | 258° |
| 2026-04-15 06:07 | 50.85746 | -2.09903 | 23033 ft | 470 kts | 258° |
| 2026-04-15 06:07 | 50.85068 | -2.14981 | 23289 ft | 471 kts | 258° |
| 2026-04-15 06:07 | 50.84393 | -2.20011 | 23532 ft | 473 kts | 258° |
| 2026-04-15 06:08 | 50.83704 | -2.25137 | 23764 ft | 475 kts | 258° |
| 2026-04-15 06:08 | 50.83016 | -2.30237 | 24000 ft | 477 kts | 258° |
| 2026-04-15 06:08 | 50.82318 | -2.35388 | 24244 ft | 479 kts | 258° |
| 2026-04-15 06:08 | 50.81613 | -2.40574 | 24457 ft | 481 kts | 258° |
| 2026-04-15 06:09 | 50.80913 | -2.45700 | 24685 ft | 482 kts | 258° |
| 2026-04-15 06:09 | 50.80199 | -2.50913 | 24889 ft | 484 kts | 258° |
| 2026-04-15 06:09 | 50.79518 | -2.56135 | 25092 ft | 485 kts | 260° |
| 2026-04-15 06:09 | 50.78941 | -2.61407 | 25288 ft | 486 kts | 259° |
| 2026-04-15 06:10 | 50.78307 | -2.66612 | 25498 ft | 488 kts | 259° |
| 2026-04-15 06:10 | 50.77671 | -2.71902 | 25714 ft | 489 kts | 259° |
| 2026-04-15 06:10 | 50.77067 | -2.77193 | 25927 ft | 490 kts | 260° |
| 2026-04-15 06:10 | 50.76454 | -2.82528 | 26139 ft | 492 kts | 259° |
| 2026-04-15 06:11 | 50.75828 | -2.87798 | 26345 ft | 493 kts | 259° |
| 2026-04-15 06:11 | 50.75186 | -2.93154 | 26545 ft | 495 kts | 259° |
| 2026-04-15 06:11 | 50.74549 | -2.98528 | 26725 ft | 497 kts | 259° |
| 2026-04-15 06:11 | 50.73919 | -3.03854 | 26951 ft | 498 kts | 259° |
| 2026-04-15 06:12 | 50.73270 | -3.09268 | 27174 ft | 499 kts | 259° |
| 2026-04-15 06:12 | 50.72623 | -3.14623 | 27349 ft | 501 kts | 259° |
| 2026-04-15 06:12 | 50.71967 | -3.20051 | 27548 ft | 503 kts | 259° |
| 2026-04-15 06:12 | 50.71307 | -3.25511 | 27767 ft | 504 kts | 259° |
| 2026-04-15 06:13 | 50.70652 | -3.30890 | 27965 ft | 506 kts | 259° |
| 2026-04-15 06:13 | 50.69983 | -3.36355 | 28156 ft | 507 kts | 259° |
| 2026-04-15 06:13 | 50.69310 | -3.41833 | 28373 ft | 508 kts | 259° |
| 2026-04-15 06:13 | 50.68633 | -3.47326 | 28569 ft | 510 kts | 259° |
| 2026-04-15 06:14 | 50.67959 | -3.52776 | 28756 ft | 511 kts | 259° |
| 2026-04-15 06:14 | 50.67273 | -3.58300 | 28933 ft | 513 kts | 259° |
| 2026-04-15 06:14 | 50.66587 | -3.63789 | 29106 ft | 515 kts | 259° |
| 2026-04-15 06:14 | 50.65889 | -3.69364 | 29299 ft | 516 kts | 259° |
| 2026-04-15 06:15 | 50.65187 | -3.74948 | 29444 ft | 519 kts | 259° |
| 2026-04-15 06:15 | 50.64489 | -3.80467 | 29667 ft | 519 kts | 259° |
| 2026-04-15 06:15 | 50.63780 | -3.86061 | 29816 ft | 522 kts | 258° |
| 2026-04-15 06:15 | 50.63062 | -3.91693 | 29990 ft | 523 kts | 258° |
| 2026-04-15 06:16 | 50.62345 | -3.97278 | 30218 ft | 524 kts | 258° |
| 2026-04-15 06:16 | 50.61575 | -4.02923 | 30501 ft | 523 kts | 257° |
| 2026-04-15 06:16 | 50.60786 | -4.08526 | 30853 ft | 521 kts | 257° |
| 2026-04-15 06:16 | 50.60028 | -4.14043 | 31189 ft | 520 kts | 258° |
| 2026-04-15 06:17 | 50.59277 | -4.19612 | 31491 ft | 519 kts | 258° |
| 2026-04-15 06:17 | 50.58521 | -4.25118 | 31811 ft | 518 kts | 258° |
| 2026-04-15 06:17 | 50.57740 | -4.30700 | 32177 ft | 516 kts | 257° |
| 2026-04-15 06:17 | 50.56978 | -4.36157 | 32499 ft | 516 kts | 258° |
| 2026-04-15 06:18 | 50.56211 | -4.41679 | 32805 ft | 515 kts | 258° |
| 2026-04-15 06:18 | 50.55442 | -4.47196 | 33109 ft | 515 kts | 257° |
| 2026-04-15 06:18 | 50.54663 | -4.52721 | 33398 ft | 515 kts | 257° |
| 2026-04-15 06:18 | 50.53892 | -4.58173 | 33723 ft | 514 kts | 257° |
| 2026-04-15 06:19 | 50.53115 | -4.63667 | 34029 ft | 513 kts | 257° |
| 2026-04-15 06:19 | 50.52345 | -4.69096 | 34365 ft | 512 kts | 257° |
| 2026-04-15 06:19 | 50.51564 | -4.74566 | 34694 ft | 511 kts | 257° |
| 2026-04-15 06:19 | 50.50783 | -4.80019 | 35003 ft | 510 kts | 257° |
| 2026-04-15 06:20 | 50.50001 | -4.85463 | 35297 ft | 509 kts | 257° |
| 2026-04-15 06:20 | 50.49228 | -4.90829 | 35563 ft | 509 kts | 257° |
| 2026-04-15 06:20 | 50.48443 | -4.96257 | 35839 ft | 508 kts | 257° |
| 2026-04-15 06:20 | 50.47652 | -5.01704 | 36106 ft | 507 kts | 257° |
| 2026-04-15 06:21 | 50.46876 | -5.07029 | 36376 ft | 507 kts | 257° |
| 2026-04-15 06:21 | 50.46086 | -5.12429 | 36626 ft | 506 kts | 257° |
| 2026-04-15 06:21 | 50.45294 | -5.17829 | 36856 ft | 506 kts | 257° |
| 2026-04-15 06:21 | 50.44499 | -5.23229 | 37098 ft | 506 kts | 257° |
| 2026-04-15 06:22 | 50.43712 | -5.28554 | 37309 ft | 506 kts | 257° |
| 2026-04-15 06:22 | 50.42913 | -5.33945 | 37532 ft | 506 kts | 257° |
| 2026-04-15 06:22 | 50.42112 | -5.39334 | 37751 ft | 506 kts | 257° |
| 2026-04-15 06:22 | 50.41303 | -5.44749 | 37962 ft | 507 kts | 257° |
| 2026-04-15 06:23 | 50.40504 | -5.50086 | 37998 ft | 510 kts | 257° |
| 2026-04-15 06:23 | 50.38871 | -5.60930 | 37990 ft | 508 kts | 257° |
| 2026-04-15 06:24 | 50.37249 | -5.71633 | 37992 ft | 506 kts | 257° |
| 2026-04-15 06:24 | 50.35607 | -5.82390 | 37991 ft | 505 kts | 256° |
| 2026-04-15 06:25 | 50.33975 | -5.93015 | 37994 ft | 504 kts | 256° |
| 2026-04-15 06:25 | 50.32317 | -6.03735 | 37993 ft | 506 kts | 256° |
| 2026-04-15 06:26 | 50.30649 | -6.14447 | 37996 ft | 507 kts | 256° |
| 2026-04-15 06:26 | 50.28978 | -6.25115 | 38000 ft | 508 kts | 256° |
| 2026-04-15 06:27 | 50.27284 | -6.35851 | 38002 ft | 507 kts | 256° |
| 2026-04-15 06:27 | 50.25593 | -6.46506 | 38002 ft | 507 kts | 256° |
| 2026-04-15 06:28 | 50.23888 | -6.57174 | 38002 ft | 507 kts | 256° |
| 2026-04-15 06:28 | 50.22171 | -6.67850 | 38001 ft | 506 kts | 256° |
| 2026-04-15 06:29 | 50.20449 | -6.78491 | 37999 ft | 506 kts | 256° |
| 2026-04-15 06:29 | 50.18745 | -6.88955 | 37998 ft | 505 kts | 256° |
| 2026-04-15 06:30 | 50.17008 | -6.99551 | 37996 ft | 505 kts | 256° |
| 2026-04-15 06:30 | 50.15264 | -7.10127 | 37995 ft | 504 kts | 256° |
| 2026-04-15 06:31 | 50.13511 | -7.20690 | 37993 ft | 504 kts | 255° |
| 2026-04-15 06:31 | 50.11740 | -7.31298 | 37992 ft | 504 kts | 255° |
| 2026-04-15 06:32 | 50.09965 | -7.41859 | 37995 ft | 505 kts | 255° |
| 2026-04-15 06:32 | 50.08178 | -7.52432 | 37999 ft | 506 kts | 255° |
| 2026-04-15 06:33 | 50.06370 | -7.63062 | 38003 ft | 507 kts | 255° |
| 2026-04-15 06:33 | 50.04559 | -7.73645 | 38007 ft | 508 kts | 255° |
| 2026-04-15 06:34 | 50.02740 | -7.84210 | 38009 ft | 508 kts | 255° |
| 2026-04-15 06:34 | 50.00899 | -7.94839 | 38010 ft | 508 kts | 255° |
| 2026-04-15 06:35 | 49.99066 | -8.03533 | 38018 ft | 507 kts | 248° |
| 2026-04-15 06:35 | 49.95908 | -8.15288 | 38009 ft | 506 kts | 247° |
| 2026-04-15 06:36 | 49.93652 | -8.23703 | 38010 ft | 506 kts | 247° |
| 2026-04-15 06:36 | 49.90996 | -8.33546 | 38010 ft | 505 kts | 247° |
| 2026-04-15 06:37 | 49.88278 | -8.43574 | 38009 ft | 504 kts | 247° |
| 2026-04-15 06:37 | 49.85544 | -8.53626 | 38007 ft | 504 kts | 247° |
| 2026-04-15 06:38 | 49.82803 | -8.63651 | 38008 ft | 505 kts | 247° |
| 2026-04-15 06:38 | 49.80064 | -8.73632 | 38011 ft | 506 kts | 247° |
| 2026-04-15 06:39 | 49.77307 | -8.83632 | 38011 ft | 507 kts | 247° |
| 2026-04-15 06:39 | 49.74522 | -8.93695 | 38010 ft | 507 kts | 247° |
| 2026-04-15 06:40 | 49.71743 | -9.03692 | 38009 ft | 508 kts | 247° |
| 2026-04-15 06:40 | 49.68941 | -9.13729 | 38010 ft | 507 kts | 246° |
| 2026-04-15 06:41 | 49.66147 | -9.23694 | 38010 ft | 507 kts | 246° |
| 2026-04-15 06:41 | 49.63333 | -9.33689 | 38010 ft | 507 kts | 246° |
| 2026-04-15 06:42 | 49.60521 | -9.43633 | 38010 ft | 507 kts | 246° |
| 2026-04-15 06:42 | 49.57694 | -9.53590 | 38009 ft | 506 kts | 246° |
| 2026-04-15 06:43 | 49.54870 | -9.63494 | 38009 ft | 506 kts | 246° |
| 2026-04-15 06:43 | 49.52024 | -9.73434 | 38008 ft | 506 kts | 246° |
| 2026-04-15 06:44 | 49.49178 | -9.83334 | 38007 ft | 505 kts | 246° |
| 2026-04-15 06:44 | 49.46328 | -9.93208 | 38006 ft | 505 kts | 246° |
| 2026-04-15 06:45 | 49.43477 | -10.03044 | 38005 ft | 505 kts | 246° |
| 2026-04-15 06:45 | 49.40621 | -10.12856 | 38004 ft | 504 kts | 246° |
| 2026-04-15 06:46 | 49.37737 | -10.22726 | 38003 ft | 504 kts | 246° |
| 2026-04-15 06:46 | 49.34874 | -10.32484 | 38002 ft | 504 kts | 246° |
| 2026-04-15 06:47 | 49.31980 | -10.42308 | 38004 ft | 505 kts | 246° |
| 2026-04-15 06:47 | 49.29078 | -10.52116 | 38010 ft | 507 kts | 245° |
| 2026-04-15 06:48 | 49.26145 | -10.61991 | 38010 ft | 508 kts | 245° |
| 2026-04-15 06:48 | 49.23226 | -10.71782 | 38011 ft | 506 kts | 245° |
| 2026-04-15 06:49 | 49.20285 | -10.81605 | 38008 ft | 505 kts | 245° |
| 2026-04-15 06:49 | 49.17364 | -10.91322 | 38005 ft | 505 kts | 245° |
| 2026-04-15 06:50 | 49.12945 | -11.05949 | 38007 ft | 506 kts | 245° |
| 2026-04-15 06:50 | 49.09995 | -11.15665 | 38009 ft | 507 kts | 245° |
| 2026-04-15 06:51 | 49.07010 | -11.25460 | 38011 ft | 507 kts | 245° |
| 2026-04-15 06:51 | 49.04044 | -11.35150 | 38010 ft | 507 kts | 245° |
| 2026-04-15 06:52 | 49.01054 | -11.44885 | 38012 ft | 507 kts | 245° |
| 2026-04-15 06:52 | 48.98042 | -11.54649 | 38009 ft | 507 kts | 245° |
| 2026-04-15 06:53 | 48.95027 | -11.64385 | 38010 ft | 507 kts | 245° |
| 2026-04-15 06:53 | 48.92021 | -11.74055 | 38009 ft | 507 kts | 245° |
| 2026-04-15 06:54 | 48.88994 | -11.83753 | 38009 ft | 507 kts | 245° |
| 2026-04-15 06:54 | 48.85974 | -11.93395 | 38008 ft | 506 kts | 244° |
| 2026-04-15 06:55 | 48.83291 | -12.03208 | 38031 ft | 505 kts | 254° |
| 2026-04-15 06:55 | 48.81355 | -12.13482 | 38011 ft | 506 kts | 254° |
| 2026-04-15 06:56 | 48.79415 | -12.23720 | 38009 ft | 506 kts | 254° |
| 2026-04-15 06:56 | 48.77447 | -12.34019 | 38008 ft | 506 kts | 254° |
| 2026-04-15 06:57 | 48.75490 | -12.44233 | 38011 ft | 506 kts | 253° |
| 2026-04-15 06:57 | 48.73515 | -12.54462 | 38009 ft | 507 kts | 253° |
| 2026-04-15 06:58 | 48.71531 | -12.64703 | 38011 ft | 507 kts | 253° |
| 2026-04-15 06:58 | 48.69527 | -12.74979 | 38012 ft | 507 kts | 253° |
| 2026-04-15 06:59 | 48.67532 | -12.85159 | 38009 ft | 506 kts | 253° |
| 2026-04-15 06:59 | 48.65514 | -12.95404 | 38009 ft | 506 kts | 253° |
| 2026-04-15 07:00 | 48.63503 | -13.05557 | 38008 ft | 505 kts | 253° |
| 2026-04-15 07:00 | 48.61482 | -13.15706 | 38006 ft | 505 kts | 253° |
| 2026-04-15 07:01 | 48.59444 | -13.25889 | 38004 ft | 505 kts | 253° |
| 2026-04-15 07:01 | 48.57410 | -13.35999 | 38006 ft | 506 kts | 253° |
| 2026-04-15 07:02 | 48.55346 | -13.46208 | 38009 ft | 506 kts | 253° |
| 2026-04-15 07:02 | 48.53280 | -13.56370 | 38012 ft | 507 kts | 253° |
| 2026-04-15 07:03 | 48.51205 | -13.66527 | 38010 ft | 507 kts | 253° |
| 2026-04-15 07:03 | 48.49124 | -13.76659 | 38011 ft | 507 kts | 253° |
| 2026-04-15 07:04 | 48.47022 | -13.86844 | 38011 ft | 506 kts | 252° |
| 2026-04-15 07:04 | 48.44927 | -13.96944 | 38010 ft | 506 kts | 252° |
| 2026-04-15 07:05 | 48.42829 | -14.07005 | 38008 ft | 505 kts | 252° |
| 2026-04-15 07:05 | 48.40709 | -14.17119 | 38006 ft | 505 kts | 252° |
| 2026-04-15 07:06 | 48.38598 | -14.27146 | 38004 ft | 504 kts | 252° |
| 2026-04-15 07:06 | 48.36464 | -14.37230 | 38004 ft | 505 kts | 252° |
| 2026-04-15 07:07 | 48.34327 | -14.47273 | 38006 ft | 506 kts | 252° |
| 2026-04-15 07:07 | 48.32176 | -14.57337 | 38009 ft | 506 kts | 252° |
| 2026-04-15 07:08 | 48.30020 | -14.67375 | 38010 ft | 506 kts | 252° |
| 2026-04-15 07:08 | 48.27843 | -14.77462 | 38012 ft | 506 kts | 252° |
| 2026-04-15 07:09 | 48.25672 | -14.87469 | 38010 ft | 506 kts | 252° |
| 2026-04-15 07:09 | 48.23472 | -14.97563 | 38011 ft | 507 kts | 252° |
| 2026-04-15 07:10 | 48.21276 | -15.07589 | 38011 ft | 506 kts | 252° |
| 2026-04-15 07:10 | 48.19080 | -15.17566 | 38011 ft | 506 kts | 252° |
| 2026-04-15 07:11 | 48.16863 | -15.27590 | 38009 ft | 505 kts | 251° |
| 2026-04-15 07:11 | 48.14659 | -15.37508 | 38006 ft | 504 kts | 251° |
| 2026-04-15 07:12 | 48.12430 | -15.47496 | 38007 ft | 505 kts | 251° |
| 2026-04-15 07:12 | 48.10191 | -15.57478 | 38011 ft | 507 kts | 251° |
| 2026-04-15 07:13 | 48.07938 | -15.67474 | 38011 ft | 508 kts | 251° |
| 2026-04-15 07:13 | 48.05669 | -15.77493 | 38009 ft | 507 kts | 251° |
| 2026-04-15 07:14 | 48.03407 | -15.87434 | 38008 ft | 506 kts | 251° |
| 2026-04-15 07:14 | 48.01138 | -15.97360 | 38005 ft | 505 kts | 251° |
| 2026-04-15 07:15 | 47.98857 | -16.07293 | 38002 ft | 504 kts | 251° |
| 2026-04-15 07:15 | 47.96575 | -16.17187 | 38003 ft | 506 kts | 251° |
| 2026-04-15 07:16 | 47.94282 | -16.27082 | 38005 ft | 506 kts | 251° |
| 2026-04-15 07:16 | 47.91972 | -16.37002 | 38008 ft | 507 kts | 251° |
| 2026-04-15 07:17 | 47.89657 | -16.46899 | 38010 ft | 507 kts | 251° |
| 2026-04-15 07:17 | 47.87331 | -16.56799 | 38011 ft | 507 kts | 251° |
| 2026-04-15 07:18 | 47.84986 | -16.66733 | 38010 ft | 506 kts | 251° |
| 2026-04-15 07:18 | 47.82651 | -16.76581 | 38009 ft | 505 kts | 250° |
| 2026-04-15 07:19 | 47.80695 | -16.84796 | 38007 ft | 505 kts | 250° |
| 2026-04-15 07:19 | 47.77953 | -16.96260 | 38006 ft | 504 kts | 250° |
| 2026-04-15 07:20 | 47.75603 | -17.06039 | 38005 ft | 505 kts | 250° |
| 2026-04-15 07:20 | 47.73624 | -17.14238 | 38007 ft | 506 kts | 250° |
| 2026-04-15 07:21 | 47.71230 | -17.24121 | 38010 ft | 506 kts | 250° |
| 2026-04-15 07:21 | 47.68838 | -17.33950 | 38009 ft | 507 kts | 250° |
| 2026-04-15 07:22 | 47.66444 | -17.43742 | 38010 ft | 506 kts | 250° |
| 2026-04-15 07:22 | 47.64033 | -17.53563 | 38010 ft | 506 kts | 250° |
| 2026-04-15 07:23 | 47.61608 | -17.63393 | 38009 ft | 506 kts | 250° |
| 2026-04-15 07:23 | 47.59191 | -17.73152 | 38009 ft | 505 kts | 250° |
| 2026-04-15 07:24 | 47.56770 | -17.82887 | 38008 ft | 505 kts | 250° |
| 2026-04-15 07:24 | 47.54342 | -17.92602 | 38007 ft | 504 kts | 250° |
| 2026-04-15 07:25 | 47.51902 | -18.02328 | 38005 ft | 504 kts | 250° |
| 2026-04-15 07:25 | 47.49443 | -18.12085 | 38006 ft | 505 kts | 250° |
| 2026-04-15 07:26 | 47.46982 | -18.21810 | 38009 ft | 506 kts | 249° |
| 2026-04-15 07:26 | 47.44509 | -18.31541 | 38009 ft | 507 kts | 249° |
| 2026-04-15 07:27 | 47.42013 | -18.41319 | 38012 ft | 507 kts | 249° |
| 2026-04-15 07:27 | 47.39525 | -18.51021 | 38010 ft | 507 kts | 249° |
| 2026-04-15 07:28 | 47.37026 | -18.60729 | 38011 ft | 507 kts | 249° |
| 2026-04-15 07:28 | 47.34514 | -18.70449 | 38010 ft | 507 kts | 249° |
| 2026-04-15 07:29 | 47.31987 | -18.80179 | 38009 ft | 506 kts | 249° |
| 2026-04-15 07:29 | 47.29483 | -18.89784 | 38007 ft | 505 kts | 249° |
| 2026-04-15 07:30 | 47.26952 | -18.99454 | 38005 ft | 504 kts | 249° |
| 2026-04-15 07:30 | 47.24427 | -19.09059 | 38003 ft | 505 kts | 249° |
| 2026-04-15 07:31 | 47.21873 | -19.18736 | 38006 ft | 506 kts | 249° |
| 2026-04-15 07:31 | 47.19321 | -19.28361 | 38010 ft | 507 kts | 249° |
| 2026-04-15 07:32 | 47.16745 | -19.38041 | 38010 ft | 507 kts | 249° |
| 2026-04-15 07:32 | 47.14179 | -19.47642 | 38010 ft | 507 kts | 249° |
| 2026-04-15 07:33 | 47.11583 | -19.57315 | 38010 ft | 506 kts | 248° |
| 2026-04-15 07:33 | 47.09001 | -19.66897 | 38008 ft | 506 kts | 248° |
| 2026-04-15 07:34 | 47.06416 | -19.76454 | 38006 ft | 505 kts | 248° |
| 2026-04-15 07:34 | 47.03808 | -19.86053 | 38004 ft | 505 kts | 248° |
| 2026-04-15 07:35 | 47.01212 | -19.95570 | 38003 ft | 504 kts | 248° |
| 2026-04-15 07:35 | 46.98247 | -20.04842 | 37997 ft | 506 kts | 242° |
| 2026-04-15 07:36 | 46.94888 | -20.13973 | 38012 ft | 507 kts | 242° |
| 2026-04-15 07:36 | 46.91573 | -20.23035 | 38009 ft | 507 kts | 242° |
| 2026-04-15 07:37 | 46.88216 | -20.32135 | 38008 ft | 507 kts | 242° |
| 2026-04-15 07:37 | 46.84875 | -20.41185 | 38011 ft | 507 kts | 242° |
| 2026-04-15 07:38 | 46.81526 | -20.50216 | 38012 ft | 507 kts | 242° |
| 2026-04-15 07:38 | 46.78146 | -20.59305 | 38009 ft | 507 kts | 242° |
| 2026-04-15 07:39 | 46.74791 | -20.68294 | 38010 ft | 507 kts | 242° |
| 2026-04-15 07:39 | 46.71403 | -20.77342 | 38010 ft | 507 kts | 241° |
| 2026-04-15 07:40 | 46.68033 | -20.86309 | 38010 ft | 506 kts | 241° |
| 2026-04-15 07:40 | 46.64644 | -20.95300 | 38008 ft | 506 kts | 241° |
| 2026-04-15 07:41 | 46.61257 | -21.04254 | 38007 ft | 505 kts | 241° |
| 2026-04-15 07:41 | 46.57851 | -21.13229 | 38005 ft | 505 kts | 241° |
| 2026-04-15 07:42 | 46.54469 | -21.22113 | 38003 ft | 504 kts | 241° |
| 2026-04-15 07:42 | 46.51057 | -21.31046 | 38004 ft | 505 kts | 241° |
| 2026-04-15 07:43 | 46.47633 | -21.39979 | 38007 ft | 506 kts | 241° |
| 2026-04-15 07:43 | 46.44213 | -21.48872 | 38009 ft | 507 kts | 241° |
| 2026-04-15 07:44 | 46.40776 | -21.57783 | 38011 ft | 507 kts | 241° |
| 2026-04-15 07:44 | 46.37318 | -21.66715 | 38010 ft | 507 kts | 240° |
| 2026-04-15 07:45 | 46.33876 | -21.75580 | 38011 ft | 507 kts | 240° |
| 2026-04-15 07:45 | 46.30396 | -21.84512 | 38009 ft | 507 kts | 240° |
| 2026-04-15 07:46 | 46.26941 | -21.93353 | 38010 ft | 507 kts | 240° |
| 2026-04-15 07:46 | 46.23453 | -22.02249 | 38010 ft | 507 kts | 240° |
| 2026-04-15 07:47 | 46.19975 | -22.11089 | 38011 ft | 507 kts | 240° |
| 2026-04-15 07:47 | 46.16490 | -22.19921 | 38011 ft | 507 kts | 240° |
| 2026-04-15 07:48 | 46.12982 | -22.28780 | 38010 ft | 507 kts | 240° |
| 2026-04-15 07:48 | 46.09485 | -22.37582 | 38010 ft | 506 kts | 240° |
| 2026-04-15 07:49 | 46.05992 | -22.46350 | 38009 ft | 506 kts | 240° |
| 2026-04-15 07:49 | 46.02469 | -22.55163 | 38009 ft | 506 kts | 240° |
| 2026-04-15 07:50 | 45.98968 | -22.63892 | 38008 ft | 506 kts | 240° |
| 2026-04-15 07:50 | 45.95455 | -22.72624 | 38008 ft | 506 kts | 240° |
| 2026-04-15 07:51 | 45.91919 | -22.81387 | 38007 ft | 505 kts | 240° |
| 2026-04-15 07:51 | 45.88397 | -22.90085 | 38006 ft | 505 kts | 240° |
| 2026-04-15 07:52 | 45.84861 | -22.98793 | 38005 ft | 505 kts | 240° |
| 2026-04-15 07:52 | 45.81310 | -23.07510 | 38007 ft | 506 kts | 240° |
| 2026-04-15 07:53 | 45.77761 | -23.16194 | 38009 ft | 506 kts | 239° |
| 2026-04-15 07:53 | 45.74206 | -23.24864 | 38011 ft | 506 kts | 239° |
| 2026-04-15 07:54 | 45.70614 | -23.33598 | 38009 ft | 507 kts | 239° |
| 2026-04-15 07:54 | 45.67048 | -23.42242 | 38010 ft | 507 kts | 239° |
| 2026-04-15 07:55 | 45.63452 | -23.50934 | 38011 ft | 507 kts | 239° |
| 2026-04-15 07:56 | 45.58057 | -23.63921 | 38009 ft | 506 kts | 239° |
| 2026-04-15 07:56 | 45.54467 | -23.72529 | 38007 ft | 505 kts | 239° |
| 2026-04-15 07:57 | 45.50861 | -23.81149 | 38005 ft | 505 kts | 239° |
| 2026-04-15 07:57 | 45.47281 | -23.89681 | 38003 ft | 504 kts | 239° |
| 2026-04-15 07:58 | 45.43666 | -23.98269 | 38006 ft | 506 kts | 239° |
| 2026-04-15 07:58 | 45.40041 | -24.06856 | 38011 ft | 508 kts | 239° |
| 2026-04-15 07:59 | 45.36381 | -24.15498 | 38010 ft | 508 kts | 239° |
| 2026-04-15 07:59 | 45.32748 | -24.24053 | 38009 ft | 506 kts | 239° |
| 2026-04-15 08:00 | 45.29094 | -24.32627 | 38005 ft | 504 kts | 239° |
| 2026-04-15 08:00 | 45.25462 | -24.41126 | 38004 ft | 506 kts | 239° |
| 2026-04-15 08:01 | 45.21811 | -24.49644 | 38006 ft | 506 kts | 239° |
| 2026-04-15 08:01 | 45.18130 | -24.58206 | 38008 ft | 507 kts | 239° |
| 2026-04-15 08:02 | 45.14462 | -24.66710 | 38009 ft | 507 kts | 238° |
| 2026-04-15 08:02 | 45.10793 | -24.75195 | 38011 ft | 507 kts | 238° |
| 2026-04-15 08:03 | 45.07107 | -24.83690 | 38009 ft | 507 kts | 238° |
| 2026-04-15 08:03 | 45.03390 | -24.92231 | 38010 ft | 507 kts | 238° |
| 2026-04-15 08:04 | 44.99650 | -25.00636 | 38014 ft | 507 kts | 232° |
| 2026-04-15 08:04 | 44.95334 | -25.08481 | 38007 ft | 506 kts | 232° |
| 2026-04-15 08:05 | 44.90988 | -25.16347 | 38009 ft | 506 kts | 232° |
| 2026-04-15 08:05 | 44.87394 | -25.22854 | 38009 ft | 505 kts | 232° |
| 2026-04-15 08:06 | 44.82348 | -25.31938 | 38007 ft | 505 kts | 232° |
| 2026-04-15 08:06 | 44.78746 | -25.38419 | 38009 ft | 506 kts | 232° |
| 2026-04-15 08:07 | 44.74396 | -25.46214 | 38011 ft | 506 kts | 232° |
| 2026-04-15 08:07 | 44.70042 | -25.54002 | 38009 ft | 507 kts | 232° |
| 2026-04-15 08:08 | 44.65681 | -25.61777 | 38011 ft | 507 kts | 232° |
| 2026-04-15 08:08 | 44.61319 | -25.69535 | 38009 ft | 507 kts | 232° |
| 2026-04-15 08:09 | 44.56924 | -25.77329 | 38011 ft | 507 kts | 232° |
| 2026-04-15 08:09 | 44.52553 | -25.85061 | 38011 ft | 507 kts | 232° |
| 2026-04-15 08:10 | 44.48152 | -25.92824 | 38011 ft | 507 kts | 231° |
| 2026-04-15 08:10 | 44.43776 | -26.00523 | 38011 ft | 507 kts | 231° |
| 2026-04-15 08:11 | 44.39386 | -26.08225 | 38011 ft | 507 kts | 231° |
| 2026-04-15 08:11 | 44.34998 | -26.15904 | 38011 ft | 506 kts | 231° |
| 2026-04-15 08:12 | 44.30603 | -26.23575 | 38009 ft | 506 kts | 231° |
| 2026-04-15 08:12 | 44.26185 | -26.31263 | 38008 ft | 505 kts | 231° |
| 2026-04-15 08:13 | 44.21785 | -26.38902 | 38006 ft | 505 kts | 231° |
| 2026-04-15 08:13 | 44.17402 | -26.46490 | 38006 ft | 505 kts | 231° |
| 2026-04-15 08:14 | 44.12998 | -26.54096 | 38008 ft | 506 kts | 231° |
| 2026-04-15 08:14 | 44.08575 | -26.61712 | 38011 ft | 507 kts | 231° |
| 2026-04-15 08:15 | 44.04144 | -26.69323 | 38008 ft | 507 kts | 231° |
| 2026-04-15 08:15 | 43.99699 | -26.76939 | 38011 ft | 507 kts | 231° |
| 2026-04-15 08:16 | 43.95236 | -26.84564 | 38008 ft | 507 kts | 231° |
| 2026-04-15 08:16 | 43.90790 | -26.92142 | 38010 ft | 507 kts | 231° |
| 2026-04-15 08:17 | 43.86351 | -26.99686 | 38010 ft | 507 kts | 231° |
| 2026-04-15 08:17 | 43.81869 | -27.07284 | 38010 ft | 507 kts | 231° |
| 2026-04-15 08:18 | 43.77430 | -27.14790 | 38009 ft | 506 kts | 231° |
| 2026-04-15 08:18 | 43.72946 | -27.22353 | 38008 ft | 506 kts | 231° |
| 2026-04-15 08:19 | 43.68493 | -27.29843 | 38007 ft | 505 kts | 231° |
| 2026-04-15 08:19 | 43.64040 | -27.37314 | 38006 ft | 505 kts | 231° |
| 2026-04-15 08:20 | 43.59567 | -27.44799 | 38004 ft | 504 kts | 230° |
| 2026-04-15 08:20 | 43.55089 | -27.52273 | 38006 ft | 506 kts | 230° |
| 2026-04-15 08:21 | 43.50608 | -27.59734 | 38008 ft | 506 kts | 230° |
| 2026-04-15 08:21 | 43.46109 | -27.67205 | 38011 ft | 507 kts | 230° |
| 2026-04-15 08:22 | 43.41618 | -27.74644 | 38009 ft | 507 kts | 230° |
| 2026-04-15 08:22 | 43.37111 | -27.82089 | 38011 ft | 507 kts | 230° |
| 2026-04-15 08:23 | 43.32584 | -27.89549 | 38011 ft | 507 kts | 230° |
| 2026-04-15 08:23 | 43.28058 | -27.96989 | 38010 ft | 506 kts | 230° |
| 2026-04-15 08:24 | 43.23553 | -28.04375 | 38009 ft | 506 kts | 230° |
| 2026-04-15 08:24 | 43.19047 | -28.11743 | 38009 ft | 506 kts | 230° |
| 2026-04-15 08:25 | 43.14518 | -28.19130 | 38008 ft | 505 kts | 230° |
| 2026-04-15 08:25 | 43.10008 | -28.26469 | 38006 ft | 505 kts | 230° |
| 2026-04-15 08:26 | 43.05489 | -28.33803 | 38006 ft | 505 kts | 230° |
| 2026-04-15 08:26 | 43.00939 | -28.41169 | 38008 ft | 506 kts | 230° |
| 2026-04-15 08:27 | 42.96398 | -28.48503 | 38012 ft | 508 kts | 230° |
| 2026-04-15 08:27 | 42.91813 | -28.55888 | 38011 ft | 508 kts | 230° |
| 2026-04-15 08:28 | 42.87253 | -28.63214 | 38012 ft | 507 kts | 230° |
| 2026-04-15 08:28 | 42.82702 | -28.70509 | 38008 ft | 506 kts | 230° |
| 2026-04-15 08:29 | 42.78158 | -28.77774 | 38005 ft | 505 kts | 230° |
| 2026-04-15 08:29 | 42.73582 | -28.85072 | 38004 ft | 505 kts | 230° |
| 2026-04-15 08:30 | 42.69031 | -28.92312 | 38005 ft | 506 kts | 230° |
| 2026-04-15 08:30 | 42.64445 | -28.99590 | 38007 ft | 506 kts | 229° |
| 2026-04-15 08:31 | 42.59868 | -29.06835 | 38010 ft | 506 kts | 229° |
| 2026-04-15 08:31 | 42.55259 | -29.14112 | 38011 ft | 506 kts | 229° |
| 2026-04-15 08:32 | 42.50684 | -29.21320 | 38010 ft | 506 kts | 229° |
| 2026-04-15 08:32 | 42.46065 | -29.28578 | 38010 ft | 506 kts | 229° |
| 2026-04-15 08:33 | 42.41474 | -29.35774 | 38010 ft | 506 kts | 229° |
| 2026-04-15 08:33 | 42.36884 | -29.42950 | 38010 ft | 506 kts | 229° |
| 2026-04-15 08:34 | 42.32255 | -29.50171 | 38009 ft | 505 kts | 229° |
| 2026-04-15 08:34 | 42.27665 | -29.57314 | 38008 ft | 505 kts | 229° |
| 2026-04-15 08:35 | 42.23070 | -29.64447 | 38007 ft | 505 kts | 229° |
| 2026-04-15 08:35 | 42.18447 | -29.71606 | 38006 ft | 504 kts | 229° |
| 2026-04-15 08:36 | 42.13852 | -29.78704 | 38007 ft | 505 kts | 229° |
| 2026-04-15 08:36 | 42.09194 | -29.85882 | 38010 ft | 506 kts | 229° |
| 2026-04-15 08:37 | 42.04569 | -29.92992 | 38009 ft | 507 kts | 229° |
| 2026-04-15 08:37 | 41.99936 | -30.00114 | 38011 ft | 506 kts | 231° |
| 2026-04-15 08:38 | 41.95533 | -30.07539 | 38006 ft | 506 kts | 231° |
| 2026-04-15 08:38 | 41.91149 | -30.14867 | 38006 ft | 505 kts | 232° |
| 2026-04-15 08:39 | 41.86759 | -30.22250 | 38005 ft | 504 kts | 231° |
| 2026-04-15 08:39 | 41.82366 | -30.29573 | 38006 ft | 505 kts | 231° |
| 2026-04-15 08:40 | 41.77970 | -30.36914 | 38009 ft | 506 kts | 231° |
| 2026-04-15 08:40 | 41.73532 | -30.44289 | 38012 ft | 507 kts | 231° |
| 2026-04-15 08:41 | 41.69112 | -30.51627 | 38010 ft | 507 kts | 231° |
| 2026-04-15 08:41 | 41.64688 | -30.58947 | 38009 ft | 507 kts | 231° |
| 2026-04-15 08:42 | 41.60235 | -30.66300 | 38010 ft | 507 kts | 231° |
| 2026-04-15 08:42 | 41.55805 | -30.73596 | 38011 ft | 507 kts | 231° |
| 2026-04-15 08:43 | 41.51341 | -30.80932 | 38011 ft | 507 kts | 231° |
| 2026-04-15 08:43 | 41.46899 | -30.88213 | 38011 ft | 507 kts | 231° |
| 2026-04-15 08:44 | 41.42455 | -30.95480 | 38010 ft | 506 kts | 231° |
| 2026-04-15 08:44 | 41.38001 | -31.02746 | 38009 ft | 506 kts | 231° |
| 2026-04-15 08:45 | 41.33530 | -31.10022 | 38008 ft | 505 kts | 231° |
| 2026-04-15 08:45 | 41.29091 | -31.17229 | 38006 ft | 505 kts | 231° |
| 2026-04-15 08:46 | 41.24627 | -31.24458 | 38005 ft | 504 kts | 231° |
| 2026-04-15 08:46 | 41.20181 | -31.31643 | 38006 ft | 506 kts | 231° |
| 2026-04-15 08:47 | 41.15690 | -31.38883 | 38009 ft | 506 kts | 231° |
| 2026-04-15 08:47 | 41.11209 | -31.46089 | 38010 ft | 506 kts | 231° |
| 2026-04-15 08:48 | 41.06727 | -31.53279 | 38012 ft | 507 kts | 230° |
| 2026-04-15 08:48 | 41.02251 | -31.60445 | 38010 ft | 507 kts | 230° |
| 2026-04-15 08:49 | 40.97733 | -31.67659 | 38010 ft | 506 kts | 230° |
| 2026-04-15 08:49 | 40.93239 | -31.74818 | 38011 ft | 506 kts | 230° |
| 2026-04-15 08:50 | 40.88742 | -31.81966 | 38011 ft | 506 kts | 230° |
| 2026-04-15 08:50 | 40.84222 | -31.89132 | 38011 ft | 506 kts | 230° |
| 2026-04-15 08:51 | 40.79729 | -31.96241 | 38011 ft | 506 kts | 230° |
| 2026-04-15 08:51 | 40.75206 | -32.03379 | 38010 ft | 505 kts | 230° |
| 2026-04-15 08:52 | 40.70703 | -32.10469 | 38011 ft | 505 kts | 230° |
| 2026-04-15 08:52 | 40.66209 | -32.17528 | 38007 ft | 504 kts | 230° |
| 2026-04-15 08:53 | 40.62441 | -32.23437 | 38007 ft | 505 kts | 230° |
| 2026-04-15 08:53 | 40.57162 | -32.31692 | 38013 ft | 508 kts | 230° |
| 2026-04-15 08:54 | 40.53342 | -32.37653 | 38012 ft | 508 kts | 230° |
| 2026-04-15 08:54 | 40.48804 | -32.44719 | 38009 ft | 507 kts | 230° |
| 2026-04-15 08:55 | 40.44237 | -32.51815 | 38011 ft | 507 kts | 230° |
| 2026-04-15 08:55 | 40.39696 | -32.58852 | 38008 ft | 506 kts | 230° |
| 2026-04-15 08:56 | 40.35130 | -32.65913 | 38007 ft | 506 kts | 230° |
| 2026-04-15 08:56 | 40.30600 | -32.72902 | 38006 ft | 505 kts | 230° |
| 2026-04-15 08:57 | 40.26051 | -32.79905 | 38004 ft | 505 kts | 230° |
| 2026-04-15 08:57 | 40.21479 | -32.86927 | 38005 ft | 506 kts | 230° |
| 2026-04-15 08:58 | 40.16913 | -32.93923 | 38007 ft | 506 kts | 230° |
| 2026-04-15 08:58 | 40.10042 | -33.04423 | 38011 ft | 507 kts | 230° |
| 2026-04-15 08:59 | 40.05438 | -33.11438 | 38009 ft | 508 kts | 229° |
| 2026-04-15 08:59 | 40.00862 | -33.18395 | 38011 ft | 508 kts | 229° |
| 2026-04-15 09:00 | 39.96265 | -33.25368 | 38011 ft | 508 kts | 229° |
| 2026-04-15 09:00 | 39.91641 | -33.32365 | 38011 ft | 508 kts | 229° |
| 2026-04-15 09:01 | 39.87045 | -33.39305 | 38011 ft | 507 kts | 229° |
| 2026-04-15 09:01 | 39.82433 | -33.46254 | 38011 ft | 507 kts | 229° |
| 2026-04-15 09:02 | 39.77829 | -33.53175 | 38010 ft | 507 kts | 229° |
| 2026-04-15 09:02 | 39.73224 | -33.60082 | 38010 ft | 506 kts | 229° |
| 2026-04-15 09:03 | 39.68595 | -33.67011 | 38009 ft | 506 kts | 229° |
| 2026-04-15 09:03 | 39.64000 | -33.73872 | 38008 ft | 506 kts | 229° |
| 2026-04-15 09:04 | 39.59361 | -33.80783 | 38007 ft | 505 kts | 229° |
| 2026-04-15 09:04 | 39.54765 | -33.87616 | 38006 ft | 505 kts | 229° |
| 2026-04-15 09:05 | 39.50133 | -33.94488 | 38004 ft | 504 kts | 229° |
| 2026-04-15 09:05 | 39.45534 | -34.01294 | 38005 ft | 505 kts | 229° |
| 2026-04-15 09:06 | 39.40906 | -34.08129 | 38007 ft | 506 kts | 229° |
| 2026-04-15 09:06 | 39.36251 | -34.14990 | 38010 ft | 506 kts | 229° |
| 2026-04-15 09:07 | 39.31609 | -34.21815 | 38012 ft | 507 kts | 229° |
| 2026-04-15 09:07 | 39.26937 | -34.28670 | 38011 ft | 507 kts | 229° |
| 2026-04-15 09:08 | 39.22286 | -34.35480 | 38011 ft | 507 kts | 229° |
| 2026-04-15 09:08 | 39.17632 | -34.42278 | 38010 ft | 507 kts | 229° |
| 2026-04-15 09:09 | 39.12979 | -34.49060 | 38011 ft | 507 kts | 229° |
| 2026-04-15 09:09 | 39.08295 | -34.55873 | 38010 ft | 507 kts | 229° |
| 2026-04-15 09:10 | 39.03626 | -34.62650 | 38011 ft | 507 kts | 229° |
| 2026-04-15 09:10 | 38.98931 | -34.69449 | 38011 ft | 507 kts | 229° |
| 2026-04-15 09:11 | 38.94240 | -34.76228 | 38011 ft | 507 kts | 228° |
| 2026-04-15 09:11 | 38.89569 | -34.82963 | 38011 ft | 506 kts | 228° |
| 2026-04-15 09:12 | 38.84890 | -34.89695 | 38010 ft | 506 kts | 228° |
| 2026-04-15 09:12 | 38.80200 | -34.96429 | 38008 ft | 505 kts | 228° |
| 2026-04-15 09:13 | 38.75518 | -35.03138 | 38007 ft | 505 kts | 228° |
| 2026-04-15 09:13 | 38.70824 | -35.09848 | 38005 ft | 504 kts | 228° |
| 2026-04-15 09:14 | 38.66138 | -35.16534 | 38007 ft | 506 kts | 228° |
| 2026-04-15 09:14 | 38.61415 | -35.23258 | 38011 ft | 507 kts | 228° |
| 2026-04-15 09:15 | 38.56716 | -35.29933 | 38010 ft | 508 kts | 228° |
| 2026-04-15 09:15 | 38.51973 | -35.36658 | 38008 ft | 508 kts | 228° |
| 2026-04-15 09:16 | 38.47254 | -35.43333 | 38010 ft | 507 kts | 228° |
| 2026-04-15 09:16 | 38.42535 | -35.49995 | 38010 ft | 507 kts | 228° |
| 2026-04-15 09:17 | 38.37809 | -35.56652 | 38010 ft | 507 kts | 228° |
| 2026-04-15 09:17 | 38.33056 | -35.63332 | 38010 ft | 507 kts | 228° |
| 2026-04-15 09:18 | 38.28318 | -35.69979 | 38010 ft | 507 kts | 228° |
| 2026-04-15 09:18 | 38.23565 | -35.76632 | 38010 ft | 507 kts | 228° |
| 2026-04-15 09:19 | 38.18822 | -35.83257 | 38011 ft | 507 kts | 228° |
| 2026-04-15 09:19 | 38.14089 | -35.89854 | 38011 ft | 507 kts | 227° |
| 2026-04-15 09:20 | 38.09344 | -35.96455 | 38011 ft | 506 kts | 227° |
| 2026-04-15 09:20 | 38.04598 | -36.03042 | 38010 ft | 506 kts | 227° |
| 2026-04-15 09:21 | 37.99846 | -36.09626 | 38009 ft | 506 kts | 227° |
| 2026-04-15 09:21 | 37.95082 | -36.16212 | 38009 ft | 506 kts | 227° |
| 2026-04-15 09:22 | 37.90342 | -36.22751 | 38008 ft | 505 kts | 227° |
| 2026-04-15 09:22 | 37.85565 | -36.29327 | 38008 ft | 505 kts | 227° |
| 2026-04-15 09:23 | 37.80811 | -36.35859 | 38008 ft | 505 kts | 227° |
| 2026-04-15 09:23 | 37.76054 | -36.42381 | 38007 ft | 505 kts | 227° |
| 2026-04-15 09:24 | 37.71299 | -36.48887 | 38007 ft | 505 kts | 227° |
| 2026-04-15 09:24 | 37.66536 | -36.55392 | 38007 ft | 505 kts | 227° |
| 2026-04-15 09:25 | 37.61776 | -36.61879 | 38007 ft | 504 kts | 227° |
| 2026-04-15 09:25 | 37.56982 | -36.68399 | 38007 ft | 504 kts | 227° |
| 2026-04-15 09:26 | 37.52231 | -36.74847 | 38008 ft | 506 kts | 227° |
| 2026-04-15 09:26 | 37.47423 | -36.81360 | 38007 ft | 508 kts | 227° |
| 2026-04-15 09:27 | 37.42609 | -36.87866 | 38010 ft | 509 kts | 227° |
| 2026-04-15 09:27 | 37.37811 | -36.94340 | 38011 ft | 507 kts | 227° |
| 2026-04-15 09:28 | 37.33001 | -37.00816 | 38007 ft | 505 kts | 227° |
| 2026-04-15 09:28 | 37.28207 | -37.07256 | 38005 ft | 506 kts | 227° |
| 2026-04-15 09:29 | 37.23380 | -37.13729 | 38007 ft | 507 kts | 227° |
| 2026-04-15 09:29 | 37.18555 | -37.20187 | 38011 ft | 508 kts | 227° |
| 2026-04-15 09:30 | 37.13722 | -37.26641 | 38010 ft | 508 kts | 227° |
| 2026-04-15 09:30 | 37.08905 | -37.33062 | 38009 ft | 507 kts | 227° |
| 2026-04-15 09:31 | 37.04061 | -37.39505 | 38006 ft | 505 kts | 227° |
| 2026-04-15 09:31 | 36.99265 | -37.45872 | 38003 ft | 505 kts | 227° |
| 2026-04-15 09:32 | 36.94419 | -37.52292 | 38005 ft | 507 kts | 227° |
| 2026-04-15 09:32 | 36.89583 | -37.58687 | 38009 ft | 508 kts | 227° |
| 2026-04-15 09:33 | 36.84711 | -37.65117 | 38012 ft | 508 kts | 226° |
| 2026-04-15 09:33 | 36.79862 | -37.71504 | 38008 ft | 507 kts | 226° |
| 2026-04-15 09:34 | 36.75000 | -37.77895 | 38006 ft | 506 kts | 226° |
| 2026-04-15 09:34 | 36.70163 | -37.84241 | 38003 ft | 505 kts | 226° |
| 2026-04-15 09:35 | 36.65345 | -37.90549 | 38001 ft | 505 kts | 226° |
| 2026-04-15 09:35 | 36.60472 | -37.96918 | 38002 ft | 506 kts | 226° |
| 2026-04-15 09:36 | 36.55608 | -38.03262 | 38006 ft | 508 kts | 226° |
| 2026-04-15 09:36 | 36.50719 | -38.09626 | 38009 ft | 508 kts | 226° |
| 2026-04-15 09:37 | 36.45854 | -38.15947 | 38011 ft | 508 kts | 226° |
| 2026-04-15 09:37 | 36.40952 | -38.22303 | 38010 ft | 508 kts | 226° |
| 2026-04-15 09:38 | 36.36078 | -38.28610 | 38010 ft | 508 kts | 226° |
| 2026-04-15 09:38 | 36.31173 | -38.34947 | 38010 ft | 507 kts | 226° |
| 2026-04-15 09:39 | 36.26294 | -38.41236 | 38009 ft | 507 kts | 226° |
| 2026-04-15 09:39 | 36.22217 | -38.46482 | 38009 ft | 507 kts | 226° |
| 2026-04-15 09:40 | 36.16525 | -38.53794 | 38008 ft | 507 kts | 226° |
| 2026-04-15 09:40 | 36.12438 | -38.59033 | 38008 ft | 506 kts | 226° |
| 2026-04-15 09:41 | 36.07526 | -38.65318 | 38008 ft | 506 kts | 226° |
| 2026-04-15 09:41 | 36.02637 | -38.71563 | 38008 ft | 506 kts | 226° |
| 2026-04-15 09:42 | 35.97756 | -38.77786 | 38007 ft | 506 kts | 226° |
| 2026-04-15 09:42 | 35.92843 | -38.84037 | 38007 ft | 506 kts | 226° |
| 2026-04-15 09:43 | 35.87965 | -38.90232 | 38006 ft | 505 kts | 226° |
| 2026-04-15 09:43 | 35.83055 | -38.96457 | 38006 ft | 505 kts | 226° |
| 2026-04-15 09:44 | 35.78166 | -39.02642 | 38005 ft | 505 kts | 226° |
| 2026-04-15 09:44 | 35.73257 | -39.08841 | 38005 ft | 504 kts | 226° |
| 2026-04-15 09:45 | 35.68367 | -39.15004 | 38004 ft | 504 kts | 226° |
| 2026-04-15 09:45 | 35.63453 | -39.21187 | 38005 ft | 505 kts | 226° |
| 2026-04-15 09:46 | 35.58548 | -39.27347 | 38010 ft | 507 kts | 226° |
| 2026-04-15 09:46 | 35.53603 | -39.33545 | 38010 ft | 508 kts | 226° |
| 2026-04-15 09:47 | 35.48642 | -39.39751 | 38011 ft | 507 kts | 225° |
| 2026-04-15 09:47 | 35.43715 | -39.45904 | 38010 ft | 506 kts | 225° |
| 2026-04-15 09:48 | 35.38763 | -39.52077 | 38007 ft | 505 kts | 225° |
| 2026-04-15 09:48 | 35.33856 | -39.58182 | 38006 ft | 505 kts | 225° |
| 2026-04-15 09:49 | 35.28915 | -39.64317 | 38008 ft | 507 kts | 225° |
| 2026-04-15 09:49 | 35.23943 | -39.70480 | 38012 ft | 508 kts | 225° |
| 2026-04-15 09:50 | 35.18981 | -39.76619 | 38011 ft | 509 kts | 225° |
| 2026-04-15 09:50 | 35.14029 | -39.82735 | 38009 ft | 508 kts | 225° |
| 2026-04-15 09:51 | 35.09046 | -39.88877 | 38007 ft | 506 kts | 225° |
| 2026-04-15 09:51 | 35.04110 | -39.94950 | 38003 ft | 505 kts | 225° |
| 2026-04-15 09:52 | 34.99108 | -40.00967 | 38014 ft | 506 kts | 221° |
| 2026-04-15 09:52 | 34.93818 | -40.06670 | 38008 ft | 507 kts | 222° |
| 2026-04-15 09:53 | 34.88546 | -40.12356 | 38012 ft | 508 kts | 221° |
| 2026-04-15 09:53 | 34.83249 | -40.18047 | 38011 ft | 508 kts | 221° |
| 2026-04-15 09:54 | 34.77961 | -40.23729 | 38010 ft | 508 kts | 221° |
| 2026-04-15 09:54 | 34.72650 | -40.29417 | 38010 ft | 508 kts | 221° |
| 2026-04-15 09:55 | 34.67341 | -40.35099 | 38011 ft | 508 kts | 221° |
| 2026-04-15 09:55 | 34.62051 | -40.40747 | 38011 ft | 507 kts | 221° |
| 2026-04-15 09:56 | 34.56733 | -40.46416 | 38011 ft | 507 kts | 221° |
| 2026-04-15 09:57 | 34.48777 | -40.54878 | 38011 ft | 507 kts | 221° |
| 2026-04-15 09:57 | 34.43486 | -40.60494 | 38011 ft | 507 kts | 221° |
| 2026-04-15 09:58 | 34.38193 | -40.66101 | 38011 ft | 507 kts | 221° |
| 2026-04-15 09:58 | 34.32855 | -40.71746 | 38011 ft | 507 kts | 221° |
| 2026-04-15 09:59 | 34.27556 | -40.77341 | 38011 ft | 507 kts | 221° |
| 2026-04-15 09:59 | 34.22257 | -40.82925 | 38011 ft | 507 kts | 221° |
| 2026-04-15 10:00 | 34.16920 | -40.88540 | 38011 ft | 507 kts | 221° |
| 2026-04-15 10:00 | 34.11630 | -40.94096 | 38011 ft | 506 kts | 221° |
| 2026-04-15 10:01 | 34.06317 | -40.99666 | 38011 ft | 506 kts | 221° |
| 2026-04-15 10:01 | 34.01000 | -41.05231 | 38011 ft | 506 kts | 221° |
| 2026-04-15 10:02 | 33.95662 | -41.10808 | 38011 ft | 506 kts | 221° |
| 2026-04-15 10:02 | 33.90348 | -41.16351 | 38011 ft | 506 kts | 221° |
| 2026-04-15 10:03 | 33.85031 | -41.21887 | 38011 ft | 506 kts | 221° |
| 2026-04-15 10:03 | 33.79693 | -41.27436 | 38011 ft | 506 kts | 221° |
| 2026-04-15 10:04 | 33.74377 | -41.32952 | 38011 ft | 506 kts | 221° |
| 2026-04-15 10:04 | 33.69062 | -41.38458 | 38011 ft | 506 kts | 221° |
| 2026-04-15 10:05 | 33.63736 | -41.43966 | 38011 ft | 505 kts | 221° |
| 2026-04-15 10:05 | 33.58420 | -41.49453 | 38011 ft | 505 kts | 221° |
| 2026-04-15 10:06 | 33.53095 | -41.54942 | 38011 ft | 505 kts | 221° |
| 2026-04-15 10:06 | 33.47743 | -41.60449 | 38011 ft | 505 kts | 221° |
| 2026-04-15 10:07 | 33.42427 | -41.65909 | 38011 ft | 505 kts | 221° |
| 2026-04-15 10:07 | 33.37116 | -41.71356 | 38010 ft | 504 kts | 220° |
| 2026-04-15 10:08 | 33.31754 | -41.76845 | 38008 ft | 507 kts | 220° |
| 2026-04-15 10:08 | 33.26405 | -41.82312 | 38010 ft | 508 kts | 220° |
| 2026-04-15 10:09 | 33.21037 | -41.87790 | 38009 ft | 508 kts | 220° |
| 2026-04-15 10:09 | 33.15651 | -41.93276 | 38010 ft | 507 kts | 220° |
| 2026-04-15 10:10 | 33.10301 | -41.98716 | 38010 ft | 507 kts | 220° |
| 2026-04-15 10:10 | 33.04943 | -42.04156 | 38009 ft | 507 kts | 220° |
| 2026-04-15 10:11 | 32.99553 | -42.09618 | 38008 ft | 506 kts | 220° |
| 2026-04-15 10:11 | 32.94189 | -42.15046 | 38007 ft | 506 kts | 220° |
| 2026-04-15 10:12 | 32.88851 | -42.20439 | 38006 ft | 506 kts | 220° |
| 2026-04-15 10:12 | 32.83469 | -42.25867 | 38005 ft | 505 kts | 220° |
| 2026-04-15 10:13 | 32.78126 | -42.31247 | 38004 ft | 505 kts | 220° |
| 2026-04-15 10:13 | 32.72746 | -42.36655 | 38002 ft | 505 kts | 220° |
| 2026-04-15 10:14 | 32.67391 | -42.42029 | 38002 ft | 505 kts | 220° |
| 2026-04-15 10:14 | 32.62021 | -42.47410 | 38006 ft | 507 kts | 220° |
| 2026-04-15 10:15 | 32.56602 | -42.52831 | 38011 ft | 509 kts | 220° |
| 2026-04-15 10:15 | 32.51205 | -42.58220 | 38009 ft | 508 kts | 220° |
| 2026-04-15 10:16 | 32.45822 | -42.63588 | 38007 ft | 506 kts | 220° |
| 2026-04-15 10:16 | 32.40424 | -42.68961 | 38004 ft | 505 kts | 220° |
| 2026-04-15 10:17 | 32.35059 | -42.74293 | 38002 ft | 506 kts | 220° |
| 2026-04-15 10:17 | 32.29644 | -42.79666 | 38005 ft | 507 kts | 220° |
| 2026-04-15 10:18 | 32.24250 | -42.85011 | 38008 ft | 509 kts | 220° |
| 2026-04-15 10:18 | 32.18805 | -42.90396 | 38010 ft | 508 kts | 220° |
| 2026-04-15 10:19 | 32.13408 | -42.95726 | 38009 ft | 507 kts | 220° |
| 2026-04-15 10:19 | 32.08019 | -43.01039 | 38007 ft | 506 kts | 220° |
| 2026-04-15 10:20 | 32.02598 | -43.06374 | 38004 ft | 505 kts | 220° |
| 2026-04-15 10:20 | 31.97220 | -43.11660 | 38002 ft | 505 kts | 220° |
| 2026-04-15 10:21 | 31.91812 | -43.16966 | 38004 ft | 507 kts | 220° |
| 2026-04-15 10:21 | 31.86380 | -43.22288 | 38007 ft | 508 kts | 220° |
| 2026-04-15 10:22 | 31.80978 | -43.27572 | 38009 ft | 508 kts | 220° |
| 2026-04-15 10:22 | 31.75555 | -43.32868 | 38010 ft | 508 kts | 220° |
| 2026-04-15 10:23 | 31.70106 | -43.38181 | 38011 ft | 508 kts | 220° |
| 2026-04-15 10:23 | 31.64669 | -43.43474 | 38010 ft | 507 kts | 220° |
| 2026-04-15 10:24 | 31.59229 | -43.48761 | 38009 ft | 507 kts | 220° |
| 2026-04-15 10:24 | 31.53815 | -43.54015 | 38007 ft | 506 kts | 220° |
| 2026-04-15 10:25 | 31.48399 | -43.59263 | 38004 ft | 505 kts | 220° |
| 2026-04-15 10:25 | 31.42983 | -43.64503 | 38002 ft | 505 kts | 220° |
| 2026-04-15 10:26 | 31.37580 | -43.69722 | 38001 ft | 505 kts | 219° |
| 2026-04-15 10:26 | 31.32168 | -43.74942 | 38001 ft | 504 kts | 219° |
| 2026-04-15 10:27 | 31.26733 | -43.80176 | 38002 ft | 506 kts | 219° |
| 2026-04-15 10:27 | 31.21301 | -43.85398 | 38004 ft | 506 kts | 219° |
| 2026-04-15 10:28 | 31.15848 | -43.90633 | 38006 ft | 507 kts | 219° |
| 2026-04-15 10:28 | 31.11328 | -43.94966 | 38008 ft | 507 kts | 219° |
| 2026-04-15 10:29 | 31.05876 | -44.00185 | 38009 ft | 507 kts | 219° |
| 2026-04-15 10:29 | 31.00430 | -44.05392 | 38009 ft | 507 kts | 219° |
| 2026-04-15 10:30 | 30.94081 | -44.11450 | 38008 ft | 506 kts | 219° |
| 2026-04-15 10:30 | 30.89542 | -44.15774 | 38006 ft | 505 kts | 219° |
| 2026-04-15 10:31 | 30.84114 | -44.20940 | 38005 ft | 505 kts | 219° |
| 2026-04-15 10:31 | 30.78636 | -44.26144 | 38006 ft | 506 kts | 219° |
| 2026-04-15 10:32 | 30.73205 | -44.31296 | 38007 ft | 506 kts | 219° |
| 2026-04-15 10:32 | 30.67752 | -44.36461 | 38009 ft | 506 kts | 219° |
| 2026-04-15 10:33 | 30.62304 | -44.41614 | 38011 ft | 506 kts | 219° |
| 2026-04-15 10:33 | 30.56817 | -44.46795 | 38009 ft | 507 kts | 219° |
| 2026-04-15 10:34 | 30.51362 | -44.51939 | 38010 ft | 506 kts | 219° |
| 2026-04-15 10:34 | 30.45881 | -44.57100 | 38010 ft | 506 kts | 219° |
| 2026-04-15 10:35 | 30.40440 | -44.62215 | 38010 ft | 505 kts | 219° |
| 2026-04-15 10:35 | 30.34995 | -44.67326 | 38008 ft | 505 kts | 219° |
| 2026-04-15 10:36 | 30.29509 | -44.72469 | 38010 ft | 506 kts | 219° |
| 2026-04-15 10:36 | 30.24029 | -44.77598 | 38009 ft | 507 kts | 219° |
| 2026-04-15 10:37 | 30.18549 | -44.82719 | 38010 ft | 507 kts | 219° |
| 2026-04-15 10:37 | 30.13090 | -44.87814 | 38011 ft | 506 kts | 219° |
| 2026-04-15 10:38 | 30.07593 | -44.92936 | 38011 ft | 506 kts | 219° |
| 2026-04-15 10:38 | 30.02129 | -44.98020 | 38010 ft | 505 kts | 219° |
| 2026-04-15 10:39 | 29.96837 | -45.03389 | 38007 ft | 506 kts | 223° |
| 2026-04-15 10:39 | 29.91665 | -45.08879 | 38010 ft | 506 kts | 223° |
| 2026-04-15 10:40 | 29.86502 | -45.14385 | 38010 ft | 507 kts | 223° |
| 2026-04-15 10:40 | 29.81320 | -45.19887 | 38008 ft | 507 kts | 223° |
| 2026-04-15 10:41 | 29.76140 | -45.25387 | 38010 ft | 507 kts | 223° |
| 2026-04-15 10:41 | 29.70964 | -45.30869 | 38011 ft | 507 kts | 223° |
| 2026-04-15 10:42 | 29.65759 | -45.36377 | 38011 ft | 506 kts | 223° |
| 2026-04-15 10:42 | 29.60594 | -45.41834 | 38011 ft | 506 kts | 223° |
| 2026-04-15 10:43 | 29.55426 | -45.47286 | 38010 ft | 505 kts | 223° |
| 2026-04-15 10:43 | 29.50224 | -45.52766 | 38009 ft | 505 kts | 223° |
| 2026-04-15 10:44 | 29.45052 | -45.58206 | 38007 ft | 504 kts | 223° |
| 2026-04-15 10:44 | 29.39912 | -45.63605 | 38005 ft | 503 kts | 223° |
| 2026-04-15 10:45 | 29.34724 | -45.69047 | 38007 ft | 505 kts | 223° |
| 2026-04-15 10:45 | 29.29538 | -45.74478 | 38010 ft | 506 kts | 223° |
| 2026-04-15 10:46 | 29.24352 | -45.79902 | 38009 ft | 505 kts | 223° |
| 2026-04-15 10:46 | 29.19173 | -45.85311 | 38009 ft | 504 kts | 223° |
| 2026-04-15 10:47 | 29.13968 | -45.90738 | 38007 ft | 503 kts | 222° |
| 2026-04-15 10:47 | 29.08806 | -45.96114 | 38005 ft | 502 kts | 222° |
| 2026-04-15 10:48 | 29.03650 | -46.01476 | 38002 ft | 502 kts | 222° |
| 2026-04-15 10:48 | 28.98494 | -46.06830 | 38001 ft | 502 kts | 222° |
| 2026-04-15 10:49 | 28.93323 | -46.12192 | 38002 ft | 502 kts | 222° |
| 2026-04-15 10:49 | 28.88132 | -46.17567 | 38003 ft | 503 kts | 222° |
| 2026-04-15 10:50 | 28.82973 | -46.22902 | 38004 ft | 503 kts | 222° |
| 2026-04-15 10:50 | 28.77799 | -46.28245 | 38005 ft | 502 kts | 222° |
| 2026-04-15 10:51 | 28.72597 | -46.33608 | 38004 ft | 502 kts | 222° |
| 2026-04-15 10:51 | 28.67434 | -46.38925 | 38004 ft | 501 kts | 222° |
| 2026-04-15 10:52 | 28.62258 | -46.44247 | 38002 ft | 501 kts | 222° |
| 2026-04-15 10:52 | 28.57102 | -46.49542 | 38003 ft | 501 kts | 222° |
| 2026-04-15 10:53 | 28.51914 | -46.54862 | 38006 ft | 503 kts | 222° |
| 2026-04-15 10:53 | 28.46688 | -46.60214 | 38010 ft | 503 kts | 222° |
| 2026-04-15 10:54 | 28.41481 | -46.65538 | 38011 ft | 503 kts | 222° |
| 2026-04-15 10:54 | 28.36286 | -46.70843 | 38010 ft | 503 kts | 222° |
| 2026-04-15 10:55 | 28.31106 | -46.76126 | 38010 ft | 502 kts | 222° |
| 2026-04-15 10:55 | 28.25913 | -46.81414 | 38009 ft | 502 kts | 222° |
| 2026-04-15 10:56 | 28.20708 | -46.86707 | 38008 ft | 501 kts | 222° |
| 2026-04-15 10:56 | 28.15529 | -46.91968 | 38006 ft | 500 kts | 222° |
| 2026-04-15 10:57 | 28.10352 | -46.97219 | 38004 ft | 499 kts | 222° |
| 2026-04-15 10:57 | 28.02592 | -47.05076 | 38003 ft | 500 kts | 222° |
| 2026-04-15 10:58 | 27.97384 | -47.10340 | 38005 ft | 501 kts | 222° |
| 2026-04-15 10:58 | 27.92180 | -47.15593 | 38007 ft | 501 kts | 222° |
| 2026-04-15 10:59 | 27.86981 | -47.20835 | 38009 ft | 501 kts | 222° |
| 2026-04-15 10:59 | 27.81790 | -47.26061 | 38012 ft | 502 kts | 222° |
| 2026-04-15 11:00 | 27.76553 | -47.31326 | 38011 ft | 501 kts | 222° |
| 2026-04-15 11:00 | 27.71361 | -47.36539 | 38011 ft | 501 kts | 222° |
| 2026-04-15 11:01 | 27.66142 | -47.41773 | 38010 ft | 501 kts | 221° |
| 2026-04-15 11:01 | 27.60931 | -47.46990 | 38009 ft | 500 kts | 221° |
| 2026-04-15 11:02 | 27.55737 | -47.52185 | 38008 ft | 500 kts | 221° |
| 2026-04-15 11:02 | 27.50543 | -47.57373 | 38007 ft | 500 kts | 221° |
| 2026-04-15 11:03 | 27.45352 | -47.62550 | 38006 ft | 499 kts | 221° |
| 2026-04-15 11:03 | 27.40147 | -47.67736 | 38007 ft | 502 kts | 221° |
| 2026-04-15 11:04 | 27.34870 | -47.72985 | 38012 ft | 507 kts | 221° |
| 2026-04-15 11:04 | 27.29605 | -47.78216 | 38203 ft | 507 kts | 221° |
| 2026-04-15 11:05 | 27.26971 | -47.80830 | 38767 ft | 501 kts | 221° |
| 2026-04-15 11:05 | 27.24337 | -47.83443 | 38799 ft | 506 kts | 221° |
| 2026-04-15 11:05 | 27.21713 | -47.86044 | 39031 ft | 506 kts | 221° |
| 2026-04-15 11:05 | 27.19066 | -47.88666 | 39300 ft | 506 kts | 221° |
| 2026-04-15 11:06 | 27.16411 | -47.91295 | 39542 ft | 506 kts | 221° |
| 2026-04-15 11:06 | 27.13798 | -47.93879 | 39794 ft | 506 kts | 221° |
| 2026-04-15 11:06 | 27.11152 | -47.96495 | 40035 ft | 506 kts | 221° |
| 2026-04-15 11:06 | 27.08484 | -47.99131 | 40289 ft | 506 kts | 221° |
| 2026-04-15 11:07 | 27.05862 | -48.01720 | 40530 ft | 506 kts | 221° |
| 2026-04-15 11:07 | 27.03198 | -48.04348 | 40764 ft | 506 kts | 221° |
| 2026-04-15 11:07 | 27.00579 | -48.06931 | 40990 ft | 507 kts | 221° |
| 2026-04-15 11:07 | 26.97909 | -48.09563 | 40996 ft | 511 kts | 221° |
| 2026-04-15 11:08 | 26.92586 | -48.14802 | 40991 ft | 507 kts | 221° |
| 2026-04-15 11:08 | 26.87280 | -48.20019 | 40992 ft | 505 kts | 221° |
| 2026-04-15 11:09 | 26.82017 | -48.25187 | 40992 ft | 505 kts | 221° |
| 2026-04-15 11:09 | 26.76744 | -48.30357 | 40993 ft | 506 kts | 221° |
| 2026-04-15 11:10 | 26.71433 | -48.35558 | 40995 ft | 507 kts | 221° |
| 2026-04-15 11:10 | 26.66121 | -48.40754 | 40997 ft | 507 kts | 221° |
| 2026-04-15 11:11 | 26.60818 | -48.45935 | 40997 ft | 507 kts | 221° |
| 2026-04-15 11:11 | 26.55469 | -48.51152 | 40995 ft | 507 kts | 221° |
| 2026-04-15 11:12 | 26.50183 | -48.56303 | 40994 ft | 507 kts | 221° |
| 2026-04-15 11:12 | 26.44838 | -48.61504 | 40994 ft | 507 kts | 221° |
| 2026-04-15 11:13 | 26.39524 | -48.66668 | 40993 ft | 507 kts | 221° |
| 2026-04-15 11:13 | 26.34200 | -48.71836 | 40993 ft | 507 kts | 221° |
| 2026-04-15 11:14 | 26.28899 | -48.76975 | 40997 ft | 507 kts | 221° |
| 2026-04-15 11:14 | 26.23589 | -48.82116 | 40993 ft | 507 kts | 221° |
| 2026-04-15 11:15 | 26.18268 | -48.87261 | 40996 ft | 507 kts | 221° |
| 2026-04-15 11:15 | 26.13826 | -48.91552 | 40995 ft | 507 kts | 221° |
| 2026-04-15 11:16 | 26.07612 | -48.97546 | 40992 ft | 507 kts | 221° |
| 2026-04-15 11:16 | 26.03175 | -49.01819 | 40995 ft | 507 kts | 221° |
| 2026-04-15 11:17 | 25.97838 | -49.06956 | 40993 ft | 506 kts | 221° |
| 2026-04-15 11:17 | 25.92521 | -49.12066 | 40992 ft | 506 kts | 221° |
| 2026-04-15 11:18 | 25.87183 | -49.17190 | 40992 ft | 506 kts | 221° |
| 2026-04-15 11:18 | 25.81872 | -49.22282 | 40995 ft | 506 kts | 221° |
| 2026-04-15 11:19 | 25.76520 | -49.27407 | 40995 ft | 506 kts | 221° |
| 2026-04-15 11:19 | 25.71211 | -49.32485 | 40994 ft | 506 kts | 221° |
| 2026-04-15 11:20 | 25.65868 | -49.37588 | 40993 ft | 505 kts | 221° |
| 2026-04-15 11:20 | 25.60569 | -49.42644 | 40993 ft | 505 kts | 221° |
| 2026-04-15 11:21 | 25.55214 | -49.47746 | 40992 ft | 505 kts | 221° |
| 2026-04-15 11:21 | 25.49905 | -49.52799 | 40993 ft | 505 kts | 221° |
| 2026-04-15 11:22 | 25.44589 | -49.57852 | 40992 ft | 505 kts | 221° |
| 2026-04-15 11:22 | 25.39242 | -49.62929 | 40992 ft | 504 kts | 221° |
| 2026-04-15 11:23 | 25.33935 | -49.67961 | 40992 ft | 504 kts | 221° |
| 2026-04-15 11:23 | 25.28595 | -49.73019 | 40992 ft | 504 kts | 221° |
| 2026-04-15 11:24 | 25.23294 | -49.78033 | 40992 ft | 504 kts | 220° |
| 2026-04-15 11:24 | 25.17977 | -49.83057 | 40993 ft | 504 kts | 220° |
| 2026-04-15 11:25 | 25.12629 | -49.88104 | 40994 ft | 505 kts | 220° |
| 2026-04-15 11:25 | 25.07288 | -49.93139 | 40993 ft | 507 kts | 220° |
| 2026-04-15 11:26 | 25.01901 | -49.98211 | 40999 ft | 508 kts | 220° |
| 2026-04-15 11:26 | 24.96271 | -50.02848 | 41000 ft | 507 kts | 214° |
| 2026-04-15 11:27 | 24.90468 | -50.07227 | 41005 ft | 507 kts | 215° |
| 2026-04-15 11:27 | 24.84645 | -50.11656 | 41005 ft | 506 kts | 214° |
| 2026-04-15 11:28 | 24.78871 | -50.16020 | 41004 ft | 505 kts | 214° |
| 2026-04-15 11:28 | 24.73095 | -50.20393 | 41001 ft | 505 kts | 214° |
| 2026-04-15 11:29 | 24.67290 | -50.24777 | 41000 ft | 504 kts | 214° |
| 2026-04-15 11:29 | 24.61517 | -50.29134 | 41000 ft | 506 kts | 214° |
| 2026-04-15 11:30 | 24.55720 | -50.33503 | 41007 ft | 507 kts | 214° |
| 2026-04-15 11:30 | 24.49865 | -50.37912 | 41010 ft | 508 kts | 214° |
| 2026-04-15 11:31 | 24.44064 | -50.42274 | 41008 ft | 507 kts | 214° |
| 2026-04-15 11:31 | 24.38244 | -50.46646 | 41007 ft | 505 kts | 214° |
| 2026-04-15 11:32 | 24.32459 | -50.50987 | 41004 ft | 504 kts | 214° |
| 2026-04-15 11:32 | 24.26636 | -50.55351 | 41003 ft | 506 kts | 214° |
| 2026-04-15 11:33 | 24.20822 | -50.59703 | 41006 ft | 507 kts | 214° |
| 2026-04-15 11:33 | 24.15004 | -50.64054 | 41009 ft | 508 kts | 214° |
| 2026-04-15 11:34 | 24.09181 | -50.68404 | 41011 ft | 507 kts | 214° |
| 2026-04-15 11:34 | 24.03363 | -50.72745 | 41009 ft | 506 kts | 214° |
| 2026-04-15 11:35 | 23.97517 | -50.77102 | 41009 ft | 506 kts | 214° |
| 2026-04-15 11:35 | 23.91715 | -50.81422 | 41006 ft | 505 kts | 214° |
| 2026-04-15 11:36 | 23.85920 | -50.85730 | 41007 ft | 504 kts | 214° |
| 2026-04-15 11:36 | 23.80128 | -50.90033 | 41001 ft | 504 kts | 214° |
| 2026-04-15 11:37 | 23.74319 | -50.94343 | 41001 ft | 506 kts | 214° |
| 2026-04-15 11:37 | 23.68467 | -50.98680 | 41008 ft | 508 kts | 214° |
| 2026-04-15 11:38 | 23.62629 | -51.03003 | 41012 ft | 509 kts | 214° |
| 2026-04-15 11:38 | 23.56793 | -51.07319 | 41015 ft | 507 kts | 214° |
| 2026-04-15 11:39 | 23.50948 | -51.11637 | 41007 ft | 505 kts | 214° |
| 2026-04-15 11:39 | 23.45155 | -51.15912 | 41002 ft | 504 kts | 214° |
| 2026-04-15 11:40 | 23.39328 | -51.20207 | 41004 ft | 506 kts | 214° |
| 2026-04-15 11:40 | 23.33509 | -51.24492 | 41006 ft | 507 kts | 214° |
| 2026-04-15 11:41 | 23.27637 | -51.28812 | 41012 ft | 508 kts | 214° |
| 2026-04-15 11:41 | 23.21785 | -51.33111 | 41009 ft | 508 kts | 214° |
| 2026-04-15 11:42 | 23.15958 | -51.37388 | 41007 ft | 506 kts | 214° |
| 2026-04-15 11:42 | 23.10111 | -51.41675 | 41007 ft | 504 kts | 214° |
| 2026-04-15 11:43 | 23.04310 | -51.45924 | 41006 ft | 506 kts | 214° |
| 2026-04-15 11:43 | 22.98453 | -51.50209 | 41004 ft | 507 kts | 214° |
| 2026-04-15 11:44 | 22.92587 | -51.54496 | 41010 ft | 508 kts | 214° |
| 2026-04-15 11:44 | 22.86739 | -51.58766 | 41009 ft | 508 kts | 214° |
| 2026-04-15 11:45 | 22.80874 | -51.63043 | 41007 ft | 506 kts | 214° |
| 2026-04-15 11:45 | 22.75042 | -51.67292 | 41007 ft | 505 kts | 214° |
| 2026-04-15 11:46 | 22.69200 | -51.71544 | 41001 ft | 504 kts | 214° |
| 2026-04-15 11:46 | 22.63380 | -51.75775 | 41002 ft | 506 kts | 214° |
| 2026-04-15 11:47 | 22.57535 | -51.80020 | 41005 ft | 507 kts | 214° |
| 2026-04-15 11:47 | 22.51649 | -51.84290 | 41010 ft | 508 kts | 214° |
| 2026-04-15 11:48 | 22.45796 | -51.88533 | 41009 ft | 508 kts | 214° |
| 2026-04-15 11:48 | 22.39935 | -51.92775 | 41013 ft | 508 kts | 214° |
| 2026-04-15 11:49 | 22.34076 | -51.97014 | 41010 ft | 508 kts | 214° |
| 2026-04-15 11:49 | 22.28213 | -52.01249 | 41011 ft | 508 kts | 214° |
| 2026-04-15 11:50 | 22.22309 | -52.05511 | 41010 ft | 507 kts | 214° |
| 2026-04-15 11:50 | 22.16458 | -52.09729 | 41015 ft | 507 kts | 214° |
| 2026-04-15 11:51 | 22.10593 | -52.13955 | 41009 ft | 507 kts | 214° |
| 2026-04-15 11:51 | 22.04707 | -52.18189 | 41010 ft | 507 kts | 214° |
| 2026-04-15 11:52 | 21.98859 | -52.22393 | 41008 ft | 507 kts | 214° |
| 2026-04-15 11:52 | 21.92972 | -52.26621 | 41007 ft | 507 kts | 214° |
| 2026-04-15 11:53 | 21.87124 | -52.30816 | 41010 ft | 507 kts | 214° |
| 2026-04-15 11:53 | 21.81256 | -52.35022 | 41006 ft | 506 kts | 214° |
| 2026-04-15 11:54 | 21.75386 | -52.39224 | 41007 ft | 506 kts | 214° |
| 2026-04-15 11:54 | 21.69526 | -52.43416 | 41008 ft | 506 kts | 214° |
| 2026-04-15 11:55 | 21.63683 | -52.47590 | 41008 ft | 506 kts | 214° |
| 2026-04-15 11:55 | 21.57800 | -52.51790 | 41005 ft | 506 kts | 214° |
| 2026-04-15 11:56 | 21.51950 | -52.55962 | 41007 ft | 506 kts | 214° |
| 2026-04-15 11:56 | 21.46068 | -52.60152 | 41008 ft | 506 kts | 214° |
| 2026-04-15 11:57 | 21.37283 | -52.66403 | 41008 ft | 506 kts | 213° |
| 2026-04-15 11:58 | 21.31386 | -52.70594 | 41008 ft | 506 kts | 213° |
| 2026-04-15 11:58 | 21.25561 | -52.74730 | 41004 ft | 506 kts | 213° |
| 2026-04-15 11:59 | 21.19671 | -52.78907 | 41008 ft | 506 kts | 213° |
| 2026-04-15 11:59 | 21.13808 | -52.83062 | 41007 ft | 506 kts | 213° |
| 2026-04-15 12:00 | 21.07960 | -52.87202 | 41006 ft | 506 kts | 213° |
| 2026-04-15 12:00 | 21.02063 | -52.91373 | 41006 ft | 506 kts | 213° |
| 2026-04-15 12:01 | 20.96221 | -52.95500 | 41005 ft | 506 kts | 213° |
| 2026-04-15 12:01 | 20.90351 | -52.99644 | 41006 ft | 506 kts | 213° |
| 2026-04-15 12:02 | 20.84460 | -53.03798 | 41006 ft | 506 kts | 213° |
| 2026-04-15 12:02 | 20.78603 | -53.07924 | 41007 ft | 506 kts | 213° |
| 2026-04-15 12:03 | 20.72740 | -53.12052 | 41005 ft | 506 kts | 213° |
| 2026-04-15 12:03 | 20.67843 | -53.15495 | 41006 ft | 506 kts | 213° |
| 2026-04-15 12:04 | 20.61944 | -53.19640 | 41004 ft | 506 kts | 213° |
| 2026-04-15 12:04 | 20.56086 | -53.23753 | 41004 ft | 505 kts | 213° |
| 2026-04-15 12:05 | 20.50187 | -53.27890 | 41007 ft | 505 kts | 213° |
| 2026-04-15 12:05 | 20.44340 | -53.31987 | 41006 ft | 505 kts | 213° |
| 2026-04-15 12:06 | 20.38437 | -53.36120 | 41004 ft | 505 kts | 213° |
| 2026-04-15 12:06 | 20.32581 | -53.40215 | 41005 ft | 505 kts | 213° |
| 2026-04-15 12:07 | 20.26696 | -53.44328 | 41004 ft | 505 kts | 213° |
| 2026-04-15 12:07 | 20.20829 | -53.48423 | 41003 ft | 505 kts | 213° |
| 2026-04-15 12:08 | 20.14941 | -53.52530 | 41005 ft | 505 kts | 213° |
| 2026-04-15 12:08 | 20.09105 | -53.56597 | 41006 ft | 504 kts | 213° |
| 2026-04-15 12:09 | 20.03211 | -53.60700 | 41004 ft | 504 kts | 213° |
| 2026-04-15 12:09 | 19.97347 | -53.64779 | 41005 ft | 504 kts | 213° |
| 2026-04-15 12:10 | 19.91485 | -53.68853 | 41005 ft | 506 kts | 213° |
| 2026-04-15 12:10 | 19.85600 | -53.72938 | 41006 ft | 506 kts | 213° |
| 2026-04-15 12:11 | 19.79674 | -53.77049 | 41012 ft | 506 kts | 213° |
| 2026-04-15 12:11 | 19.73794 | -53.81125 | 41009 ft | 507 kts | 213° |
| 2026-04-15 12:12 | 19.67911 | -53.85199 | 41012 ft | 507 kts | 213° |
| 2026-04-15 12:12 | 19.61984 | -53.89299 | 41012 ft | 507 kts | 213° |
| 2026-04-15 12:13 | 19.56090 | -53.93373 | 41009 ft | 506 kts | 213° |
| 2026-04-15 12:13 | 19.50175 | -53.97458 | 41009 ft | 506 kts | 213° |
| 2026-04-15 12:14 | 19.48215 | -53.98811 | 41008 ft | 506 kts | 213° |